createdAt,value
2018-08-06T00:00:04.190Z,11.74
2018-08-06T00:05:04.191Z,11.67
2018-08-06T00:10:04.204Z,11.56
2018-08-06T00:15:04.199Z,11.49
2018-08-06T00:20:04.198Z,11.43
2018-08-06T00:25:04.208Z,11.36
2018-08-06T00:30:04.209Z,11.33
2018-08-06T00:35:04.208Z,11.31
2018-08-06T00:40:04.220Z,11.29
2018-08-06T00:45:04.215Z,11.3
2018-08-06T00:50:04.219Z,11.2
2018-08-06T00:55:04.227Z,11.12
2018-08-06T01:00:04.221Z,11.08
2018-08-06T01:05:04.219Z,11.01
2018-08-06T01:10:04.248Z,10.99
2018-08-06T01:15:04.228Z,10.95
2018-08-06T01:20:04.228Z,10.92
2018-08-06T01:25:04.256Z,10.89
2018-08-06T01:30:04.234Z,10.89
2018-08-06T01:35:04.242Z,10.82
2018-08-06T01:40:04.250Z,10.8
2018-08-06T01:45:04.251Z,10.7
2018-08-06T01:50:04.246Z,10.63
2018-08-06T01:55:04.272Z,10.6
2018-08-06T02:00:04.252Z,10.65
2018-08-06T02:05:04.257Z,10.63
2018-08-06T02:10:04.274Z,10.55
2018-08-06T02:15:04.267Z,10.54
2018-08-06T02:20:04.262Z,10.48
2018-08-06T02:25:04.287Z,10.42
2018-08-06T02:30:04.276Z,10.42
2018-08-06T02:35:04.276Z,10.39
2018-08-06T02:40:04.293Z,10.39
2018-08-06T02:45:04.283Z,10.4
2018-08-06T02:50:04.278Z,10.37
2018-08-06T02:55:04.291Z,10.31
2018-08-06T03:00:04.324Z,10.29
2018-08-06T03:05:04.293Z,10.31
2018-08-06T03:10:04.370Z,10.25
2018-08-06T03:15:04.303Z,10.26
2018-08-06T03:20:04.293Z,10.26
2018-08-06T03:25:04.307Z,10.25
2018-08-06T03:30:04.301Z,10.21
2018-08-06T03:35:04.320Z,10.13
2018-08-06T03:40:04.347Z,10.11
2018-08-06T03:45:04.308Z,10.13
2018-08-06T03:50:04.332Z,10.12
2018-08-06T03:55:04.318Z,10.14
2018-08-06T04:00:04.347Z,10.19
2018-08-06T04:05:04.320Z,10.21
2018-08-06T04:10:04.332Z,10.16
2018-08-06T04:15:04.321Z,10.12
2018-08-06T04:20:04.336Z,10.11
2018-08-06T04:25:04.340Z,10.11
2018-08-06T04:30:04.331Z,10.12
2018-08-06T04:35:04.352Z,10.19
2018-08-06T04:40:04.346Z,10.27
2018-08-06T04:45:04.342Z,10.46
2018-08-06T04:50:04.343Z,10.77
2018-08-06T04:55:04.363Z,10.88
2018-08-06T05:00:04.345Z,11.08
2018-08-06T05:05:04.352Z,11.4
2018-08-06T05:10:04.361Z,11.69
2018-08-06T05:15:04.355Z,11.91
2018-08-06T05:20:04.360Z,12.14
2018-08-06T05:25:04.380Z,12.36
2018-08-06T05:30:04.366Z,12.59
2018-08-06T05:35:04.369Z,12.97
2018-08-06T05:40:04.442Z,13.81
2018-08-06T05:45:04.371Z,13.92
2018-08-06T05:50:04.375Z,14.01
2018-08-06T05:55:04.396Z,14.14
2018-08-06T06:00:04.377Z,14.28
2018-08-06T06:05:04.380Z,14.52
2018-08-06T06:10:04.387Z,14.74
2018-08-06T06:15:04.387Z,14.95
2018-08-06T06:20:03.401Z,15.14
2018-08-06T06:25:03.388Z,15.36
2018-08-06T06:30:03.395Z,15.6
2018-08-06T06:35:03.398Z,15.99
2018-08-06T06:40:03.400Z,16.59
2018-08-06T06:45:03.426Z,16.88
2018-08-06T06:50:03.405Z,17.29
2018-08-06T06:55:03.408Z,17.64
2018-08-06T07:00:03.501Z,17.94
2018-08-06T07:05:03.412Z,18.14
2018-08-06T07:10:03.417Z,18.5
2018-08-06T07:15:03.437Z,18.74
2018-08-06T07:20:03.421Z,19.16
2018-08-06T07:25:03.424Z,19.51
2018-08-06T07:30:03.438Z,20.48
2018-08-06T07:35:03.430Z,21.76
2018-08-06T07:40:03.432Z,22.83
2018-08-06T07:45:03.481Z,23.5
2018-08-06T07:50:03.439Z,24.1
2018-08-06T07:55:03.433Z,24.59
2018-08-06T08:00:03.456Z,25.2
2018-08-06T08:05:03.444Z,25.73
2018-08-06T08:10:03.448Z,26.53
2018-08-06T08:15:03.457Z,26.87
2018-08-06T08:20:03.517Z,27.19
2018-08-06T08:25:03.453Z,26.98
2018-08-06T08:30:03.462Z,27.26
2018-08-06T08:35:03.466Z,26.4
2018-08-06T08:40:03.460Z,26.35
2018-08-06T08:45:03.470Z,26.58
2018-08-06T08:50:03.485Z,27.3
2018-08-06T08:55:03.486Z,27.89
2018-08-06T09:00:03.486Z,28.52
2018-08-06T09:05:03.496Z,29.37
2018-08-06T09:10:03.496Z,30.24
2018-08-06T09:15:03.494Z,30.93
2018-08-06T09:20:03.506Z,30.7
2018-08-06T09:25:03.507Z,31.38
2018-08-06T09:30:03.516Z,31.5
2018-08-06T09:35:03.506Z,32.04
2018-08-06T09:40:03.513Z,31.96
2018-08-06T09:45:03.521Z,32.3
2018-08-06T09:50:03.506Z,31.51
2018-08-06T09:55:03.504Z,31.3
2018-08-06T10:00:03.529Z,31.75
2018-08-06T10:05:03.510Z,31.67
2018-08-06T10:10:03.519Z,31.22
2018-08-06T10:15:03.537Z,31.68
2018-08-06T10:20:03.528Z,31.92
2018-08-06T10:25:03.526Z,31.49
2018-08-06T10:30:03.565Z,30.41
2018-08-06T10:35:03.522Z,29.48
2018-08-06T10:40:03.548Z,28.83
2018-08-06T10:45:03.559Z,28.09
2018-08-06T10:50:03.537Z,27.83
2018-08-06T10:55:03.541Z,27.85
2018-08-06T11:00:03.558Z,28.56
2018-08-06T11:05:03.594Z,29.23
2018-08-06T11:10:03.551Z,29.9
2018-08-06T11:15:03.556Z,30.34
2018-08-06T11:20:03.557Z,30.54
2018-08-06T11:25:03.556Z,30.21
2018-08-06T11:30:03.558Z,30.44
2018-08-06T11:35:03.576Z,31.34
2018-08-06T11:40:03.577Z,32.54
2018-08-06T11:45:03.580Z,34.01
2018-08-06T11:50:03.579Z,35.29
2018-08-06T11:55:03.588Z,35.96
2018-08-06T12:00:03.600Z,36.81
2018-08-06T12:05:03.593Z,37.88
2018-08-06T12:10:03.599Z,38.28
2018-08-06T12:15:03.602Z,38.75
2018-08-06T12:20:03.582Z,39.53
2018-08-06T12:25:03.583Z,40.74
2018-08-06T12:30:03.608Z,40.56
2018-08-06T12:35:03.618Z,41.42
2018-08-06T12:40:03.600Z,41.43
2018-08-06T12:45:03.614Z,41.93
2018-08-06T12:50:03.609Z,42.09
2018-08-06T12:55:03.600Z,42.79
2018-08-06T13:00:03.629Z,43.08
2018-08-06T13:05:03.611Z,43.43
2018-08-06T13:10:03.616Z,43.17
2018-08-06T13:15:03.632Z,43.44
2018-08-06T13:20:03.619Z,42.79
2018-08-06T13:25:03.617Z,41.5
2018-08-06T13:30:03.626Z,39.5
2018-08-06T13:35:03.622Z,38.24
2018-08-06T13:40:03.632Z,37.14
2018-08-06T13:45:03.634Z,35.71
2018-08-06T13:50:03.634Z,34.39
2018-08-06T13:55:03.638Z,33.56
2018-08-06T14:00:03.656Z,33.01
2018-08-06T14:05:03.641Z,32.62
2018-08-06T14:10:03.641Z,32.61
2018-08-06T14:15:03.662Z,33
2018-08-06T14:20:03.649Z,34.73
2018-08-06T14:25:03.650Z,37.02
2018-08-06T14:30:03.680Z,39.74
2018-08-06T14:35:03.658Z,41.79
2018-08-06T14:40:03.662Z,43.34
2018-08-06T14:45:03.666Z,44.15
2018-08-06T14:50:03.666Z,44.64
2018-08-06T14:55:03.664Z,44.33
2018-08-06T15:00:03.678Z,43.81
2018-08-06T15:05:03.672Z,44.85
2018-08-06T15:10:03.710Z,45.07
2018-08-06T15:15:03.686Z,45.42
2018-08-06T15:20:03.681Z,44.76
2018-08-06T15:25:03.681Z,44.33
2018-08-06T15:30:03.688Z,44.8
2018-08-06T15:35:03.688Z,44.25
2018-08-06T15:40:03.691Z,44.95
2018-08-06T15:45:03.698Z,45.81
2018-08-06T15:50:03.699Z,45.43
2018-08-06T15:55:03.697Z,44.14
2018-08-06T16:00:03.711Z,42.02
2018-08-06T16:05:03.706Z,41.65
2018-08-06T16:10:03.709Z,41.62
2018-08-06T16:15:03.731Z,42.79
2018-08-06T16:20:03.718Z,41.37
2018-08-06T16:25:03.776Z,37.91
2018-08-06T16:30:03.741Z,35.63
2018-08-06T16:35:03.717Z,34.08
2018-08-06T16:40:03.736Z,33.08
2018-08-06T16:45:03.757Z,32.13
2018-08-06T16:50:03.730Z,31.57
2018-08-06T16:55:03.754Z,31.27
2018-08-06T17:00:03.753Z,30.85
2018-08-06T17:05:03.743Z,30.48
2018-08-06T17:10:03.741Z,30.3
2018-08-06T17:15:03.746Z,29.94
2018-08-06T17:20:03.748Z,29.73
2018-08-06T17:25:03.747Z,29.49
2018-08-06T17:30:03.751Z,29.28
2018-08-06T17:35:03.754Z,29.03
2018-08-06T17:40:03.759Z,28.75
2018-08-06T17:45:03.758Z,28.48
2018-08-06T17:50:03.797Z,28.23
2018-08-06T17:55:03.817Z,28.02
2018-08-06T18:00:03.762Z,27.82
2018-08-06T18:05:03.768Z,27.59
2018-08-06T18:10:03.773Z,27.38
2018-08-06T18:15:03.777Z,27.2
2018-08-06T18:20:03.773Z,27.04
2018-08-06T18:25:03.783Z,26.8
2018-08-06T18:30:03.786Z,26.53
2018-08-06T18:35:03.787Z,26.21
2018-08-06T18:40:03.796Z,25.92
2018-08-06T18:45:03.795Z,25.65
2018-08-06T18:50:03.792Z,25.31
2018-08-06T18:55:03.800Z,24.94
2018-08-06T19:00:03.800Z,24.6
2018-08-06T19:05:03.799Z,24.3
2018-08-06T19:10:03.810Z,23.97
2018-08-06T19:15:03.810Z,23.71
2018-08-06T19:20:03.808Z,23.41
2018-08-06T19:25:03.814Z,23.11
2018-08-06T19:30:03.814Z,22.93
2018-08-06T19:35:03.824Z,22.71
2018-08-06T19:40:03.820Z,22.51
2018-08-06T19:45:03.817Z,22.32
2018-08-06T19:50:03.822Z,22.21
2018-08-06T19:55:03.832Z,22.07
2018-08-06T20:00:03.825Z,21.91
2018-08-06T20:05:03.831Z,21.69
2018-08-06T20:10:03.844Z,21.48
2018-08-06T20:15:03.837Z,21.25
2018-08-06T20:20:03.839Z,21.05
2018-08-06T20:25:03.841Z,20.87
2018-08-06T20:30:03.843Z,20.69
2018-08-06T20:35:03.850Z,20.66
2018-08-06T20:40:03.849Z,20.64
2018-08-06T20:45:03.851Z,20.6
2018-08-06T20:50:03.858Z,20.59
2018-08-06T20:55:03.860Z,20.49
2018-08-06T21:00:03.862Z,20.48
2018-08-06T21:05:03.862Z,20.56
2018-08-06T21:10:03.918Z,20.56
2018-08-06T21:15:03.871Z,20.53
2018-08-06T21:20:03.867Z,20.49
2018-08-06T21:25:03.878Z,20.33
2018-08-06T21:30:03.873Z,20.2
2018-08-06T21:35:03.879Z,19.95
2018-08-06T21:40:03.884Z,19.75
2018-08-06T21:45:03.900Z,19.61
2018-08-06T21:50:03.886Z,19.46
2018-08-06T21:55:03.895Z,19.28
2018-08-06T22:00:03.929Z,19.15
2018-08-06T22:05:03.898Z,19.09
2018-08-06T22:10:03.903Z,19.04
2018-08-06T22:15:03.898Z,19.02
2018-08-06T22:20:03.900Z,18.99
2018-08-06T22:25:03.910Z,19
2018-08-06T22:30:03.907Z,18.99
2018-08-06T22:35:03.911Z,18.93
2018-08-06T22:40:03.919Z,18.85
2018-08-06T22:45:03.916Z,18.8
2018-08-06T22:50:03.918Z,18.92
2018-08-06T22:55:03.926Z,18.94
2018-08-06T23:00:03.954Z,18.96
2018-08-06T23:05:03.932Z,18.96
2018-08-06T23:10:03.929Z,18.82
2018-08-06T23:15:03.934Z,18.64
2018-08-06T23:20:03.937Z,18.49
2018-08-06T23:25:03.934Z,18.32
2018-08-06T23:30:03.942Z,18.18
2018-08-06T23:35:03.948Z,18.06
2018-08-06T23:40:03.953Z,17.93
2018-08-06T23:45:03.949Z,17.85
2018-08-06T23:50:03.958Z,17.74
2018-08-06T23:55:03.955Z,17.59
